Knoxville, TN (37915)

11:39 AM EDT on October 24, 2014 (GMT -0400)
North Knoxville | Change Station
CLOSE
Current Station
Personal Weather Station
Location: Knoxville, TN
Elevation: 988 ft
Nearby Weather Stations

Elev 988 ft 36.01 °N, 83.93 °W | Updated 3 minutes ago

Mostly Cloudy
Mostly Cloudy
60.6 °F
Feels Like 60.6 °F
N
2.2
Wind Variable Wind from East

Today
High -- | Low -- °F
--% Chance of Precip.
Yesterday
High -- | Low -- °F
Precip. -- in
7:50 AM 6:48 PM
New Moon, 1% visible
Pressure 30.11 in
Visibility 10.0 miles
Clouds Scattered Clouds 18000 ft
Mostly Cloudy 25000 ft
Dew Point 46 °F
Humidity 59%
Rainfall 0.00 in
Snow Depth Not available.
UV 2 out of 12
Pollen .90 out of 12
Ozone Good
Flu Activity Sporadic
METAR KTYS 241453Z 01009KT 10SM SCT180 BKN250 13/07 A3011 RMK AO2 SLP196 T01280067 50000

More Conditions Fewer Conditions

Pressure 30.11 in
Visibility 10.0 miles
Clouds Scattered Clouds 18000 ft
Mostly Cloudy 25000 ft
Dew Point 46 °F
Humidity 59%
Rainfall 0.00 in
Snow Depth Not available.
UV 2 out of 12
Pollen .90 out of 12
Ozone Good
Flu Activity Sporadic
METAR KTYS 241453Z 01009KT 10SM SCT180 BKN250 13/07 A3011 RMK AO2 SLP196 T01280067 50000

More Conditions Fewer Conditions

10-Day Weather Forecast

Almanac

Astronomy

Oct. 24, 2014 Rise Set
Actual Time 7:50 AM EDT 6:48 PM EDT
Civil Twilight 7:24 AM EDT 7:14 PM EDT
Nautical Twilight 6:54 AM EDT 7:44 PM EDT
Astronomical Twilight 6:24 AM EDT 8:14 PM EDT
Moon 8:27 AM EDT 7:29 PM EDT
Length of Visible Light 11h 50m
Length of Day
10h 58m
Tomorrow will be 2m 5s shorter.
New Moon, 1% of the Moon is Illuminated
Today
New Moon
Oct 30
First Quarter
Nov 6
Full
Nov 14
Last Quarter
Nov 22
New

Today's Extremes

State Highs State Lows

Community

WunderPhotos

Upload Photos

1,764,589 photos uploaded!

WunderBlogs® & News

Nearby

Air Quality

  Air Quality AQ Index Pollutant
Yesterday Good
OZONE
Yesterday Good
PM2.5
Current Good
OZONE
Friday Good
PM2.5
Friday Good
OZONE
Saturday Good
PM2.5
Saturday Good
OZONE

Snow Depth

Station Depth Elevation
No new snow has been reported.

Earthquake Activity

City Distance Mag. Time & Date
No recent earthquake activity has been reported nearby.
Minimum magnitude displayed is 2.5.

Coastal Water Temperatures

Place Temperature
No Stations Reporting

Nearby Weather Stations